sensor_id;sensor_type;location;lat;lon;timestamp;P1;durP1;ratioP1;P2;durP2;ratioP2
4377;SDS011;2203;53.686;9.994;2023-03-14T00:00:35;8.20;;;2.70;;
4377;SDS011;2203;53.686;9.994;2023-03-14T00:03:00;13.63;;;2.50;;
4377;SDS011;2203;53.686;9.994;2023-03-14T00:05:26;14.23;;;2.93;;
4377;SDS011;2203;53.686;9.994;2023-03-14T00:07:51;15.37;;;2.60;;
4377;SDS011;2203;53.686;9.994;2023-03-14T00:10:17;15.17;;;3.10;;
4377;SDS011;2203;53.686;9.994;2023-03-14T00:12:43;20.27;;;5.33;;
4377;SDS011;2203;53.686;9.994;2023-03-14T00:15:09;16.33;;;2.83;;
4377;SDS011;2203;53.686;9.994;2023-03-14T00:17:35;9.50;;;2.87;;
4377;SDS011;2203;53.686;9.994;2023-03-14T00:20:01;15.47;;;2.77;;
4377;SDS011;2203;53.686;9.994;2023-03-14T00:22:32;10.07;;;2.53;;
4377;SDS011;2203;53.686;9.994;2023-03-14T00:24:59;11.13;;;2.23;;
4377;SDS011;2203;53.686;9.994;2023-03-14T00:27:24;10.73;;;2.97;;
4377;SDS011;2203;53.686;9.994;2023-03-14T00:29:49;13.87;;;3.00;;
4377;SDS011;2203;53.686;9.994;2023-03-14T00:32:15;12.40;;;2.73;;
4377;SDS011;2203;53.686;9.994;2023-03-14T00:34:40;9.37;;;3.00;;
4377;SDS011;2203;53.686;9.994;2023-03-14T00:37:06;9.00;;;2.60;;
4377;SDS011;2203;53.686;9.994;2023-03-14T00:39:31;17.13;;;3.20;;
4377;SDS011;2203;53.686;9.994;2023-03-14T00:41:57;10.83;;;2.90;;
4377;SDS011;2203;53.686;9.994;2023-03-14T00:44:22;11.67;;;2.80;;
4377;SDS011;2203;53.686;9.994;2023-03-14T00:46:47;13.40;;;4.40;;
4377;SDS011;2203;53.686;9.994;2023-03-14T00:49:13;17.47;;;2.93;;
4377;SDS011;2203;53.686;9.994;2023-03-14T00:51:38;19.00;;;3.10;;
4377;SDS011;2203;53.686;9.994;2023-03-14T00:54:03;12.63;;;3.13;;
4377;SDS011;2203;53.686;9.994;2023-03-14T00:56:29;11.83;;;2.77;;
4377;SDS011;2203;53.686;9.994;2023-03-14T00:58:55;15.47;;;2.50;;
4377;SDS011;2203;53.686;9.994;2023-03-14T01:01:21;11.63;;;3.00;;
4377;SDS011;2203;53.686;9.994;2023-03-14T01:03:46;14.53;;;3.10;;
4377;SDS011;2203;53.686;9.994;2023-03-14T01:06:16;16.23;;;3.10;;
4377;SDS011;2203;53.686;9.994;2023-03-14T01:08:42;17.60;;;2.73;;
4377;SDS011;2203;53.686;9.994;2023-03-14T01:11:09;10.73;;;2.73;;
4377;SDS011;2203;53.686;9.994;2023-03-14T01:13:46;12.73;;;3.10;;
4377;SDS011;2203;53.686;9.994;2023-03-14T01:16:12;10.37;;;2.70;;
4377;SDS011;2203;53.686;9.994;2023-03-14T01:18:39;22.53;;;2.80;;
4377;SDS011;2203;53.686;9.994;2023-03-14T01:21:12;15.27;;;2.90;;
4377;SDS011;2203;53.686;9.994;2023-03-14T01:23:41;9.10;;;2.60;;
4377;SDS011;2203;53.686;9.994;2023-03-14T01:26:11;22.93;;;3.83;;
4377;SDS011;2203;53.686;9.994;2023-03-14T01:28:37;20.73;;;3.90;;
4377;SDS011;2203;53.686;9.994;2023-03-14T01:31:03;24.80;;;3.93;;
4377;SDS011;2203;53.686;9.994;2023-03-14T01:33:29;12.43;;;2.17;;
4377;SDS011;2203;53.686;9.994;2023-03-14T01:35:55;5.87;;;2.00;;
4377;SDS011;2203;53.686;9.994;2023-03-14T01:38:20;13.30;;;2.73;;
4377;SDS011;2203;53.686;9.994;2023-03-14T01:40:46;11.60;;;2.70;;
4377;SDS011;2203;53.686;9.994;2023-03-14T01:43:15;17.20;;;3.47;;
4377;SDS011;2203;53.686;9.994;2023-03-14T01:48:24;24.13;;;3.90;;
4377;SDS011;2203;53.686;9.994;2023-03-14T01:50:50;12.40;;;2.77;;
4377;SDS011;2203;53.686;9.994;2023-03-14T01:53:16;11.50;;;2.87;;
4377;SDS011;2203;53.686;9.994;2023-03-14T01:55:46;22.00;;;3.33;;
4377;SDS011;2203;53.686;9.994;2023-03-14T01:58:12;11.43;;;2.73;;
4377;SDS011;2203;53.686;9.994;2023-03-14T02:00:38;14.07;;;2.70;;
4377;SDS011;2203;53.686;9.994;2023-03-14T02:03:09;11.37;;;2.80;;
4377;SDS011;2203;53.686;9.994;2023-03-14T02:05:38;13.03;;;3.00;;
4377;SDS011;2203;53.686;9.994;2023-03-14T02:08:05;15.37;;;3.10;;
4377;SDS011;2203;53.686;9.994;2023-03-14T02:10:43;23.53;;;4.10;;
4377;SDS011;2203;53.686;9.994;2023-03-14T02:13:10;10.37;;;2.70;;
4377;SDS011;2203;53.686;9.994;2023-03-14T02:15:36;14.73;;;3.97;;
4377;SDS011;2203;53.686;9.994;2023-03-14T02:18:03;15.93;;;3.43;;
4377;SDS011;2203;53.686;9.994;2023-03-14T02:20:34;12.40;;;3.57;;
4377;SDS011;2203;53.686;9.994;2023-03-14T02:23:36;8.07;;;2.77;;
4377;SDS011;2203;53.686;9.994;2023-03-14T02:26:10;11.07;;;2.87;;
4377;SDS011;2203;53.686;9.994;2023-03-14T02:28:42;11.83;;;2.90;;
4377;SDS011;2203;53.686;9.994;2023-03-14T02:31:07;6.97;;;3.10;;
4377;SDS011;2203;53.686;9.994;2023-03-14T02:33:33;12.27;;;2.83;;
4377;SDS011;2203;53.686;9.994;2023-03-14T02:36:01;12.73;;;3.63;;
4377;SDS011;2203;53.686;9.994;2023-03-14T02:38:41;10.60;;;2.60;;
4377;SDS011;2203;53.686;9.994;2023-03-14T02:41:08;15.23;;;3.10;;
4377;SDS011;2203;53.686;9.994;2023-03-14T02:43:34;9.37;;;3.50;;
4377;SDS011;2203;53.686;9.994;2023-03-14T02:46:00;8.07;;;3.23;;
4377;SDS011;2203;53.686;9.994;2023-03-14T02:48:38;8.63;;;2.90;;
4377;SDS011;2203;53.686;9.994;2023-03-14T02:51:05;15.07;;;3.27;;
4377;SDS011;2203;53.686;9.994;2023-03-14T02:53:32;10.00;;;2.97;;
4377;SDS011;2203;53.686;9.994;2023-03-14T02:55:59;7.80;;;3.03;;
4377;SDS011;2203;53.686;9.994;2023-03-14T02:58:25;10.43;;;2.90;;
4377;SDS011;2203;53.686;9.994;2023-03-14T03:00:51;15.93;;;3.57;;
4377;SDS011;2203;53.686;9.994;2023-03-14T03:03:17;13.60;;;3.30;;
4377;SDS011;2203;53.686;9.994;2023-03-14T03:05:42;10.10;;;2.63;;
4377;SDS011;2203;53.686;9.994;2023-03-14T03:08:09;11.17;;;3.60;;
4377;SDS011;2203;53.686;9.994;2023-03-14T03:10:35;17.30;;;3.57;;
4377;SDS011;2203;53.686;9.994;2023-03-14T03:13:00;10.43;;;2.83;;
4377;SDS011;2203;53.686;9.994;2023-03-14T03:15:26;7.13;;;2.77;;
4377;SDS011;2203;53.686;9.994;2023-03-14T03:17:51;10.00;;;3.30;;
4377;SDS011;2203;53.686;9.994;2023-03-14T03:20:16;9.67;;;2.80;;
4377;SDS011;2203;53.686;9.994;2023-03-14T03:22:42;13.23;;;3.30;;
4377;SDS011;2203;53.686;9.994;2023-03-14T03:25:08;6.50;;;2.70;;
4377;SDS011;2203;53.686;9.994;2023-03-14T03:27:34;11.80;;;2.90;;
4377;SDS011;2203;53.686;9.994;2023-03-14T03:30:00;12.13;;;3.33;;
4377;SDS011;2203;53.686;9.994;2023-03-14T03:32:26;12.10;;;2.90;;
4377;SDS011;2203;53.686;9.994;2023-03-14T03:34:51;11.30;;;4.17;;
4377;SDS011;2203;53.686;9.994;2023-03-14T03:37:17;11.40;;;3.30;;
4377;SDS011;2203;53.686;9.994;2023-03-14T03:39:42;10.63;;;3.30;;
4377;SDS011;2203;53.686;9.994;2023-03-14T03:42:08;14.43;;;3.87;;
4377;SDS011;2203;53.686;9.994;2023-03-14T03:44:33;7.07;;;3.03;;
4377;SDS011;2203;53.686;9.994;2023-03-14T03:46:59;8.90;;;3.53;;
4377;SDS011;2203;53.686;9.994;2023-03-14T03:49:27;13.70;;;3.23;;
4377;SDS011;2203;53.686;9.994;2023-03-14T03:51:53;17.07;;;3.57;;
4377;SDS011;2203;53.686;9.994;2023-03-14T03:54:19;11.70;;;2.80;;
4377;SDS011;2203;53.686;9.994;2023-03-14T03:56:44;17.33;;;4.17;;
4377;SDS011;2203;53.686;9.994;2023-03-14T03:59:09;8.70;;;3.20;;
4377;SDS011;2203;53.686;9.994;2023-03-14T04:01:35;9.30;;;2.90;;
4377;SDS011;2203;53.686;9.994;2023-03-14T04:04:00;14.60;;;2.97;;
4377;SDS011;2203;53.686;9.994;2023-03-14T04:06:26;9.17;;;2.40;;
4377;SDS011;2203;53.686;9.994;2023-03-14T04:08:51;11.23;;;4.30;;
4377;SDS011;2203;53.686;9.994;2023-03-14T04:11:18;6.70;;;2.73;;
4377;SDS011;2203;53.686;9.994;2023-03-14T04:13:44;9.03;;;2.93;;
4377;SDS011;2203;53.686;9.994;2023-03-14T04:16:23;4.80;;;3.17;;
4377;SDS011;2203;53.686;9.994;2023-03-14T04:18:50;14.60;;;2.90;;
4377;SDS011;2203;53.686;9.994;2023-03-14T04:21:16;12.70;;;2.50;;
4377;SDS011;2203;53.686;9.994;2023-03-14T04:23:42;13.73;;;3.00;;
4377;SDS011;2203;53.686;9.994;2023-03-14T04:26:07;17.43;;;3.33;;
4377;SDS011;2203;53.686;9.994;2023-03-14T04:28:32;7.27;;;3.73;;
4377;SDS011;2203;53.686;9.994;2023-03-14T04:30:58;14.40;;;3.07;;
4377;SDS011;2203;53.686;9.994;2023-03-14T04:33:24;11.57;;;3.33;;
4377;SDS011;2203;53.686;9.994;2023-03-14T04:35:52;12.90;;;3.33;;
4377;SDS011;2203;53.686;9.994;2023-03-14T04:38:18;7.93;;;2.70;;
4377;SDS011;2203;53.686;9.994;2023-03-14T04:40:44;10.40;;;2.70;;
4377;SDS011;2203;53.686;9.994;2023-03-14T04:43:10;11.10;;;3.10;;
4377;SDS011;2203;53.686;9.994;2023-03-14T04:45:36;9.87;;;2.90;;
4377;SDS011;2203;53.686;9.994;2023-03-14T04:48:01;7.83;;;2.40;;
4377;SDS011;2203;53.686;9.994;2023-03-14T04:50:27;9.97;;;2.07;;
4377;SDS011;2203;53.686;9.994;2023-03-14T04:52:52;6.43;;;1.83;;
4377;SDS011;2203;53.686;9.994;2023-03-14T04:55:18;4.30;;;1.10;;
4377;SDS011;2203;53.686;9.994;2023-03-14T04:57:43;4.10;;;1.13;;
4377;SDS011;2203;53.686;9.994;2023-03-14T05:00:09;1.20;;;0.90;;
4377;SDS011;2203;53.686;9.994;2023-03-14T05:02:35;3.00;;;1.33;;
4377;SDS011;2203;53.686;9.994;2023-03-14T05:05:00;3.43;;;1.40;;
4377;SDS011;2203;53.686;9.994;2023-03-14T05:07:26;8.70;;;1.23;;
4377;SDS011;2203;53.686;9.994;2023-03-14T05:09:51;3.37;;;1.00;;
4377;SDS011;2203;53.686;9.994;2023-03-14T05:12:18;6.63;;;1.43;;
4377;SDS011;2203;53.686;9.994;2023-03-14T05:14:44;4.63;;;1.00;;
4377;SDS011;2203;53.686;9.994;2023-03-14T05:17:09;5.70;;;1.27;;
4377;SDS011;2203;53.686;9.994;2023-03-14T05:19:35;5.50;;;1.40;;
4377;SDS011;2203;53.686;9.994;2023-03-14T05:22:00;4.03;;;1.17;;
4377;SDS011;2203;53.686;9.994;2023-03-14T05:24:26;2.73;;;1.13;;
4377;SDS011;2203;53.686;9.994;2023-03-14T05:26:51;8.80;;;1.27;;
4377;SDS011;2203;53.686;9.994;2023-03-14T05:29:16;7.23;;;2.03;;
4377;SDS011;2203;53.686;9.994;2023-03-14T05:31:42;3.73;;;1.33;;
4377;SDS011;2203;53.686;9.994;2023-03-14T05:34:07;4.10;;;1.20;;
4377;SDS011;2203;53.686;9.994;2023-03-14T05:36:33;4.63;;;1.63;;
4377;SDS011;2203;53.686;9.994;2023-03-14T05:38:58;7.83;;;1.80;;
4377;SDS011;2203;53.686;9.994;2023-03-14T05:41:23;7.00;;;1.40;;
4377;SDS011;2203;53.686;9.994;2023-03-14T05:43:49;4.70;;;1.70;;
4377;SDS011;2203;53.686;9.994;2023-03-14T05:46:14;3.80;;;1.90;;
4377;SDS011;2203;53.686;9.994;2023-03-14T05:48:39;10.63;;;2.43;;
4377;SDS011;2203;53.686;9.994;2023-03-14T05:51:05;6.13;;;2.00;;
4377;SDS011;2203;53.686;9.994;2023-03-14T05:53:30;8.50;;;2.30;;
4377;SDS011;2203;53.686;9.994;2023-03-14T05:55:56;4.90;;;1.40;;
4377;SDS011;2203;53.686;9.994;2023-03-14T05:58:22;6.23;;;1.70;;
4377;SDS011;2203;53.686;9.994;2023-03-14T06:00:48;10.30;;;1.90;;
4377;SDS011;2203;53.686;9.994;2023-03-14T06:03:14;7.10;;;1.87;;
4377;SDS011;2203;53.686;9.994;2023-03-14T06:05:39;5.30;;;1.83;;
4377;SDS011;2203;53.686;9.994;2023-03-14T06:08:05;6.03;;;2.20;;
4377;SDS011;2203;53.686;9.994;2023-03-14T06:10:30;8.83;;;3.33;;
4377;SDS011;2203;53.686;9.994;2023-03-14T06:12:55;8.40;;;2.77;;
4377;SDS011;2203;53.686;9.994;2023-03-14T06:15:21;7.87;;;2.83;;
4377;SDS011;2203;53.686;9.994;2023-03-14T06:17:46;9.30;;;2.93;;
4377;SDS011;2203;53.686;9.994;2023-03-14T06:20:12;10.13;;;3.10;;
4377;SDS011;2203;53.686;9.994;2023-03-14T06:22:37;8.63;;;2.90;;
4377;SDS011;2203;53.686;9.994;2023-03-14T06:25:04;12.90;;;4.50;;
4377;SDS011;2203;53.686;9.994;2023-03-14T06:27:30;4.80;;;3.70;;
4377;SDS011;2203;53.686;9.994;2023-03-14T06:29:55;15.40;;;3.53;;
4377;SDS011;2203;53.686;9.994;2023-03-14T06:32:21;17.83;;;4.77;;
4377;SDS011;2203;53.686;9.994;2023-03-14T06:34:46;9.67;;;4.13;;
4377;SDS011;2203;53.686;9.994;2023-03-14T06:37:11;12.47;;;4.40;;
4377;SDS011;2203;53.686;9.994;2023-03-14T06:39:37;8.27;;;4.87;;
4377;SDS011;2203;53.686;9.994;2023-03-14T06:42:03;11.07;;;4.37;;
4377;SDS011;2203;53.686;9.994;2023-03-14T06:44:29;8.03;;;4.70;;
4377;SDS011;2203;53.686;9.994;2023-03-14T06:46:54;12.73;;;5.80;;
4377;SDS011;2203;53.686;9.994;2023-03-14T06:49:20;11.10;;;5.60;;
4377;SDS011;2203;53.686;9.994;2023-03-14T06:51:45;10.47;;;4.73;;
4377;SDS011;2203;53.686;9.994;2023-03-14T06:54:11;6.03;;;4.80;;
4377;SDS011;2203;53.686;9.994;2023-03-14T06:56:37;10.23;;;5.10;;
4377;SDS011;2203;53.686;9.994;2023-03-14T06:59:02;11.23;;;4.57;;
4377;SDS011;2203;53.686;9.994;2023-03-14T07:01:28;13.60;;;4.40;;
4377;SDS011;2203;53.686;9.994;2023-03-14T07:03:54;13.73;;;5.07;;
4377;SDS011;2203;53.686;9.994;2023-03-14T07:06:20;13.03;;;4.40;;
4377;SDS011;2203;53.686;9.994;2023-03-14T07:08:46;11.10;;;4.33;;
4377;SDS011;2203;53.686;9.994;2023-03-14T07:11:11;13.83;;;3.90;;
4377;SDS011;2203;53.686;9.994;2023-03-14T07:13:37;10.40;;;3.93;;
4377;SDS011;2203;53.686;9.994;2023-03-14T07:16:03;13.57;;;4.10;;
4377;SDS011;2203;53.686;9.994;2023-03-14T07:18:29;6.40;;;3.43;;
4377;SDS011;2203;53.686;9.994;2023-03-14T07:20:55;6.97;;;3.27;;
4377;SDS011;2203;53.686;9.994;2023-03-14T07:23:20;9.40;;;3.53;;
4377;SDS011;2203;53.686;9.994;2023-03-14T07:25:45;8.80;;;4.00;;
4377;SDS011;2203;53.686;9.994;2023-03-14T07:28:11;17.40;;;3.40;;
4377;SDS011;2203;53.686;9.994;2023-03-14T07:30:36;12.73;;;2.87;;
4377;SDS011;2203;53.686;9.994;2023-03-14T07:33:02;8.53;;;3.70;;
4377;SDS011;2203;53.686;9.994;2023-03-14T07:35:27;7.90;;;3.10;;
4377;SDS011;2203;53.686;9.994;2023-03-14T07:37:53;12.80;;;2.50;;
4377;SDS011;2203;53.686;9.994;2023-03-14T07:40:18;31.47;;;3.00;;
4377;SDS011;2203;53.686;9.994;2023-03-14T07:42:43;12.50;;;2.70;;
4377;SDS011;2203;53.686;9.994;2023-03-14T07:45:09;9.77;;;2.20;;
4377;SDS011;2203;53.686;9.994;2023-03-14T07:47:35;8.60;;;2.10;;
4377;SDS011;2203;53.686;9.994;2023-03-14T07:50:01;11.20;;;2.33;;
4377;SDS011;2203;53.686;9.994;2023-03-14T07:52:27;7.13;;;2.57;;
4377;SDS011;2203;53.686;9.994;2023-03-14T07:54:53;11.13;;;2.50;;
4377;SDS011;2203;53.686;9.994;2023-03-14T07:57:18;7.83;;;2.73;;
4377;SDS011;2203;53.686;9.994;2023-03-14T07:59:43;9.63;;;1.80;;
4377;SDS011;2203;53.686;9.994;2023-03-14T08:02:12;6.93;;;2.20;;
4377;SDS011;2203;53.686;9.994;2023-03-14T08:04:38;8.97;;;2.10;;
4377;SDS011;2203;53.686;9.994;2023-03-14T08:07:04;8.30;;;1.80;;
4377;SDS011;2203;53.686;9.994;2023-03-14T08:09:30;10.80;;;2.63;;
4377;SDS011;2203;53.686;9.994;2023-03-14T08:11:55;15.37;;;2.07;;
4377;SDS011;2203;53.686;9.994;2023-03-14T08:14:20;8.70;;;2.40;;
4377;SDS011;2203;53.686;9.994;2023-03-14T08:16:48;9.17;;;2.20;;
4377;SDS011;2203;53.686;9.994;2023-03-14T08:19:14;8.30;;;2.20;;
4377;SDS011;2203;53.686;9.994;2023-03-14T08:21:40;9.00;;;2.50;;
4377;SDS011;2203;53.686;9.994;2023-03-14T08:24:05;7.80;;;2.33;;
4377;SDS011;2203;53.686;9.994;2023-03-14T08:26:31;9.63;;;2.40;;
4377;SDS011;2203;53.686;9.994;2023-03-14T08:28:56;6.83;;;2.03;;
4377;SDS011;2203;53.686;9.994;2023-03-14T08:31:22;8.80;;;2.20;;
4377;SDS011;2203;53.686;9.994;2023-03-14T08:33:47;12.40;;;2.23;;
4377;SDS011;2203;53.686;9.994;2023-03-14T08:36:12;18.07;;;2.93;;
4377;SDS011;2203;53.686;9.994;2023-03-14T08:38:38;4.93;;;1.73;;
4377;SDS011;2203;53.686;9.994;2023-03-14T08:41:03;7.57;;;1.73;;
4377;SDS011;2203;53.686;9.994;2023-03-14T08:43:29;9.27;;;2.50;;
4377;SDS011;2203;53.686;9.994;2023-03-14T08:45:59;9.00;;;1.60;;
4377;SDS011;2203;53.686;9.994;2023-03-14T08:48:25;6.60;;;1.53;;
4377;SDS011;2203;53.686;9.994;2023-03-14T08:50:50;11.43;;;1.73;;
4377;SDS011;2203;53.686;9.994;2023-03-14T08:53:16;6.90;;;1.60;;
4377;SDS011;2203;53.686;9.994;2023-03-14T08:55:41;2.33;;;1.83;;
4377;SDS011;2203;53.686;9.994;2023-03-14T08:58:06;6.70;;;2.13;;
4377;SDS011;2203;53.686;9.994;2023-03-14T09:00:32;11.40;;;3.20;;
4377;SDS011;2203;53.686;9.994;2023-03-14T09:02:57;2.70;;;1.43;;
4377;SDS011;2203;53.686;9.994;2023-03-14T09:05:23;8.57;;;2.50;;
4377;SDS011;2203;53.686;9.994;2023-03-14T09:07:48;5.07;;;2.00;;
4377;SDS011;2203;53.686;9.994;2023-03-14T09:10:13;9.27;;;1.90;;
4377;SDS011;2203;53.686;9.994;2023-03-14T09:12:39;10.67;;;2.93;;
4377;SDS011;2203;53.686;9.994;2023-03-14T09:15:04;15.27;;;2.30;;
4377;SDS011;2203;53.686;9.994;2023-03-14T09:17:30;5.97;;;2.53;;
4377;SDS011;2203;53.686;9.994;2023-03-14T09:19:55;10.07;;;2.63;;
4377;SDS011;2203;53.686;9.994;2023-03-14T09:22:22;18.27;;;3.50;;
4377;SDS011;2203;53.686;9.994;2023-03-14T09:24:47;17.80;;;3.50;;
4377;SDS011;2203;53.686;9.994;2023-03-14T09:27:12;4.83;;;2.63;;
4377;SDS011;2203;53.686;9.994;2023-03-14T09:29:38;11.00;;;2.93;;
4377;SDS011;2203;53.686;9.994;2023-03-14T09:32:03;5.73;;;3.00;;
4377;SDS011;2203;53.686;9.994;2023-03-14T09:34:29;8.50;;;2.80;;
4377;SDS011;2203;53.686;9.994;2023-03-14T09:36:54;14.07;;;3.00;;
4377;SDS011;2203;53.686;9.994;2023-03-14T09:39:20;17.50;;;3.17;;
4377;SDS011;2203;53.686;9.994;2023-03-14T09:41:49;16.97;;;2.67;;
4377;SDS011;2203;53.686;9.994;2023-03-14T09:44:24;6.10;;;2.00;;
4377;SDS011;2203;53.686;9.994;2023-03-14T09:46:53;3.70;;;1.20;;
4377;SDS011;2203;53.686;9.994;2023-03-14T09:49:27;2.20;;;0.80;;
4377;SDS011;2203;53.686;9.994;2023-03-14T09:51:58;2.97;;;0.93;;
4377;SDS011;2203;53.686;9.994;2023-03-14T09:54:38;5.13;;;1.03;;
4377;SDS011;2203;53.686;9.994;2023-03-14T09:57:08;5.03;;;1.10;;
4377;SDS011;2203;53.686;9.994;2023-03-14T09:59:37;3.30;;;1.10;;
4377;SDS011;2203;53.686;9.994;2023-03-14T10:02:23;3.93;;;1.27;;
4377;SDS011;2203;53.686;9.994;2023-03-14T10:04:51;3.63;;;1.40;;
4377;SDS011;2203;53.686;9.994;2023-03-14T10:07:19;4.30;;;1.10;;
4377;SDS011;2203;53.686;9.994;2023-03-14T10:09:54;2.20;;;0.80;;
4377;SDS011;2203;53.686;9.994;2023-03-14T10:12:20;2.60;;;0.80;;
4377;SDS011;2203;53.686;9.994;2023-03-14T10:14:55;3.60;;;0.80;;
4377;SDS011;2203;53.686;9.994;2023-03-14T10:17:21;1.17;;;0.70;;
4377;SDS011;2203;53.686;9.994;2023-03-14T10:23:02;3.43;;;0.80;;
4377;SDS011;2203;53.686;9.994;2023-03-14T10:25:37;3.23;;;0.87;;
4377;SDS011;2203;53.686;9.994;2023-03-14T10:28:04;2.67;;;0.80;;
4377;SDS011;2203;53.686;9.994;2023-03-14T10:33:22;5.27;;;1.00;;
4377;SDS011;2203;53.686;9.994;2023-03-14T10:36:00;2.40;;;0.70;;
4377;SDS011;2203;53.686;9.994;2023-03-14T10:38:29;1.33;;;0.80;;
4377;SDS011;2203;53.686;9.994;2023-03-14T10:40:57;2.10;;;0.50;;
4377;SDS011;2203;53.686;9.994;2023-03-14T10:43:24;6.00;;;1.10;;
4377;SDS011;2203;53.686;9.994;2023-03-14T10:45:56;2.30;;;0.70;;
4377;SDS011;2203;53.686;9.994;2023-03-14T10:51:09;2.73;;;0.80;;
4377;SDS011;2203;53.686;9.994;2023-03-14T10:53:39;3.67;;;1.00;;
4377;SDS011;2203;53.686;9.994;2023-03-14T10:56:06;1.13;;;0.60;;
4377;SDS011;2203;53.686;9.994;2023-03-14T10:58:33;2.60;;;0.60;;
4377;SDS011;2203;53.686;9.994;2023-03-14T11:03:33;0.80;;;0.60;;
4377;SDS011;2203;53.686;9.994;2023-03-14T11:06:06;1.43;;;0.70;;
4377;SDS011;2203;53.686;9.994;2023-03-14T11:11:21;1.57;;;0.60;;
4377;SDS011;2203;53.686;9.994;2023-03-14T11:16:41;2.50;;;1.00;;
4377;SDS011;2203;53.686;9.994;2023-03-14T11:19:19;4.93;;;1.07;;
4377;SDS011;2203;53.686;9.994;2023-03-14T11:21:56;3.87;;;1.03;;
4377;SDS011;2203;53.686;9.994;2023-03-14T11:30:12;6.13;;;0.90;;
4377;SDS011;2203;53.686;9.994;2023-03-14T11:35:47;4.10;;;0.80;;
4377;SDS011;2203;53.686;9.994;2023-03-14T11:40:50;4.93;;;1.00;;
4377;SDS011;2203;53.686;9.994;2023-03-14T11:43:18;7.00;;;1.67;;
4377;SDS011;2203;53.686;9.994;2023-03-14T11:45:47;3.93;;;0.90;;
4377;SDS011;2203;53.686;9.994;2023-03-14T11:48:33;3.10;;;1.03;;
4377;SDS011;2203;53.686;9.994;2023-03-14T11:51:23;9.00;;;1.47;;
4377;SDS011;2203;53.686;9.994;2023-03-14T11:54:11;9.60;;;1.47;;
4377;SDS011;2203;53.686;9.994;2023-03-14T11:57:03;7.63;;;1.40;;
4377;SDS011;2203;53.686;9.994;2023-03-14T12:10:25;12.60;;;1.50;;
4377;SDS011;2203;53.686;9.994;2023-03-14T12:12:51;11.33;;;1.97;;
4377;SDS011;2203;53.686;9.994;2023-03-14T12:15:20;7.90;;;1.40;;
4377;SDS011;2203;53.686;9.994;2023-03-14T12:17:47;17.87;;;1.70;;
4377;SDS011;2203;53.686;9.994;2023-03-14T12:20:20;11.43;;;2.10;;
4377;SDS011;2203;53.686;9.994;2023-03-14T12:22:47;6.17;;;1.70;;
4377;SDS011;2203;53.686;9.994;2023-03-14T12:25:21;14.33;;;1.80;;
4377;SDS011;2203;53.686;9.994;2023-03-14T12:28:02;7.87;;;1.27;;
4377;SDS011;2203;53.686;9.994;2023-03-14T12:30:30;27.80;;;4.40;;
4377;SDS011;2203;53.686;9.994;2023-03-14T12:35:36;16.83;;;2.07;;
4377;SDS011;2203;53.686;9.994;2023-03-14T12:38:07;20.33;;;1.80;;
4377;SDS011;2203;53.686;9.994;2023-03-14T12:40:37;24.97;;;2.77;;
4377;SDS011;2203;53.686;9.994;2023-03-14T12:43:20;17.80;;;2.60;;
4377;SDS011;2203;53.686;9.994;2023-03-14T12:48:45;20.03;;;2.77;;
4377;SDS011;2203;53.686;9.994;2023-03-14T12:51:15;13.33;;;2.37;;
4377;SDS011;2203;53.686;9.994;2023-03-14T12:59:35;15.33;;;2.20;;
4377;SDS011;2203;53.686;9.994;2023-03-14T13:02:19;12.03;;;1.60;;
4377;SDS011;2203;53.686;9.994;2023-03-14T13:04:52;14.57;;;2.00;;
4377;SDS011;2203;53.686;9.994;2023-03-14T13:07:30;16.90;;;2.93;;
4377;SDS011;2203;53.686;9.994;2023-03-14T13:12:37;9.80;;;2.33;;
4377;SDS011;2203;53.686;9.994;2023-03-14T13:15:22;25.73;;;3.50;;
4377;SDS011;2203;53.686;9.994;2023-03-14T13:17:55;20.60;;;2.87;;
4377;SDS011;2203;53.686;9.994;2023-03-14T13:20:26;23.87;;;2.93;;
4377;SDS011;2203;53.686;9.994;2023-03-14T13:22:54;26.17;;;2.40;;
4377;SDS011;2203;53.686;9.994;2023-03-14T13:25:20;22.93;;;2.60;;
4377;SDS011;2203;53.686;9.994;2023-03-14T13:27:47;18.43;;;2.63;;
4377;SDS011;2203;53.686;9.994;2023-03-14T13:32:40;17.00;;;2.30;;
4377;SDS011;2203;53.686;9.994;2023-03-14T13:35:14;13.30;;;1.83;;
4377;SDS011;2203;53.686;9.994;2023-03-14T13:37:44;12.13;;;2.00;;
4377;SDS011;2203;53.686;9.994;2023-03-14T13:40:23;9.77;;;2.10;;
4377;SDS011;2203;53.686;9.994;2023-03-14T13:42:59;11.37;;;1.77;;
4377;SDS011;2203;53.686;9.994;2023-03-14T13:45:26;9.50;;;1.93;;
4377;SDS011;2203;53.686;9.994;2023-03-14T13:47:51;8.53;;;2.20;;
4377;SDS011;2203;53.686;9.994;2023-03-14T13:50:17;12.27;;;1.60;;
4377;SDS011;2203;53.686;9.994;2023-03-14T13:52:43;16.13;;;1.90;;
4377;SDS011;2203;53.686;9.994;2023-03-14T13:55:16;20.37;;;1.90;;
4377;SDS011;2203;53.686;9.994;2023-03-14T13:57:47;16.63;;;2.17;;
4377;SDS011;2203;53.686;9.994;2023-03-14T14:00:21;8.83;;;2.00;;
4377;SDS011;2203;53.686;9.994;2023-03-14T14:02:51;23.30;;;3.07;;
4377;SDS011;2203;53.686;9.994;2023-03-14T14:05:18;14.07;;;2.00;;
4377;SDS011;2203;53.686;9.994;2023-03-14T14:07:44;13.00;;;2.10;;
4377;SDS011;2203;53.686;9.994;2023-03-14T14:10:13;18.23;;;2.10;;
4377;SDS011;2203;53.686;9.994;2023-03-14T14:13:00;9.30;;;1.70;;
4377;SDS011;2203;53.686;9.994;2023-03-14T14:15:26;10.67;;;2.70;;
4377;SDS011;2203;53.686;9.994;2023-03-14T14:18:00;16.27;;;2.20;;
4377;SDS011;2203;53.686;9.994;2023-03-14T14:23:03;22.20;;;1.93;;
4377;SDS011;2203;53.686;9.994;2023-03-14T14:25:30;14.20;;;2.13;;
4377;SDS011;2203;53.686;9.994;2023-03-14T14:27:56;19.40;;;2.20;;
4377;SDS011;2203;53.686;9.994;2023-03-14T14:30:40;11.97;;;2.67;;
4377;SDS011;2203;53.686;9.994;2023-03-14T14:33:17;12.77;;;1.50;;
4377;SDS011;2203;53.686;9.994;2023-03-14T14:35:49;12.60;;;3.30;;
4377;SDS011;2203;53.686;9.994;2023-03-14T14:38:20;13.30;;;1.80;;
4377;SDS011;2203;53.686;9.994;2023-03-14T14:40:46;15.80;;;1.90;;
4377;SDS011;2203;53.686;9.994;2023-03-14T14:43:16;9.70;;;1.93;;
4377;SDS011;2203;53.686;9.994;2023-03-14T14:45:43;14.47;;;2.10;;
4377;SDS011;2203;53.686;9.994;2023-03-14T14:48:10;16.80;;;2.10;;
4377;SDS011;2203;53.686;9.994;2023-03-14T14:50:38;5.67;;;2.33;;
4377;SDS011;2203;53.686;9.994;2023-03-14T14:55:50;5.90;;;1.60;;
4377;SDS011;2203;53.686;9.994;2023-03-14T14:58:30;9.13;;;1.73;;
4377;SDS011;2203;53.686;9.994;2023-03-14T15:01:04;11.97;;;1.33;;
4377;SDS011;2203;53.686;9.994;2023-03-14T15:03:32;9.93;;;1.73;;
4377;SDS011;2203;53.686;9.994;2023-03-14T15:05:58;6.63;;;1.70;;
4377;SDS011;2203;53.686;9.994;2023-03-14T15:08:24;9.03;;;2.60;;
4377;SDS011;2203;53.686;9.994;2023-03-14T15:10:51;7.70;;;1.70;;
4377;SDS011;2203;53.686;9.994;2023-03-14T15:13:16;20.30;;;2.67;;
4377;SDS011;2203;53.686;9.994;2023-03-14T15:15:41;20.43;;;2.27;;
4377;SDS011;2203;53.686;9.994;2023-03-14T15:18:10;12.60;;;2.67;;
4377;SDS011;2203;53.686;9.994;2023-03-14T15:20:41;26.83;;;3.37;;
4377;SDS011;2203;53.686;9.994;2023-03-14T15:23:11;16.80;;;1.80;;
4377;SDS011;2203;53.686;9.994;2023-03-14T15:25:37;16.07;;;2.10;;
4377;SDS011;2203;53.686;9.994;2023-03-14T15:28:08;20.60;;;2.73;;
4377;SDS011;2203;53.686;9.994;2023-03-14T15:30:55;22.13;;;2.70;;
4377;SDS011;2203;53.686;9.994;2023-03-14T15:33:22;12.83;;;2.20;;
4377;SDS011;2203;53.686;9.994;2023-03-14T15:35:47;8.80;;;2.03;;
4377;SDS011;2203;53.686;9.994;2023-03-14T15:38:14;13.53;;;2.23;;
4377;SDS011;2203;53.686;9.994;2023-03-14T15:40:42;12.33;;;2.10;;
4377;SDS011;2203;53.686;9.994;2023-03-14T15:43:08;14.87;;;1.77;;
4377;SDS011;2203;53.686;9.994;2023-03-14T15:45:34;10.53;;;1.80;;
4377;SDS011;2203;53.686;9.994;2023-03-14T15:48:00;18.60;;;3.00;;
4377;SDS011;2203;53.686;9.994;2023-03-14T15:50:25;10.37;;;2.00;;
4377;SDS011;2203;53.686;9.994;2023-03-14T15:52:51;6.17;;;1.40;;
4377;SDS011;2203;53.686;9.994;2023-03-14T15:55:17;12.33;;;1.90;;
4377;SDS011;2203;53.686;9.994;2023-03-14T15:57:42;22.10;;;2.10;;
4377;SDS011;2203;53.686;9.994;2023-03-14T16:00:13;18.47;;;2.23;;
4377;SDS011;2203;53.686;9.994;2023-03-14T16:02:41;13.33;;;2.13;;
4377;SDS011;2203;53.686;9.994;2023-03-14T16:05:10;11.63;;;1.93;;
4377;SDS011;2203;53.686;9.994;2023-03-14T16:07:36;19.90;;;1.87;;
4377;SDS011;2203;53.686;9.994;2023-03-14T16:10:02;16.23;;;2.10;;
4377;SDS011;2203;53.686;9.994;2023-03-14T16:12:28;16.20;;;2.20;;
4377;SDS011;2203;53.686;9.994;2023-03-14T16:14:53;22.47;;;2.17;;